createdAt,value
2023-05-07T00:00:38.776Z,3.27
2023-05-07T00:03:06.654Z,3.07
2023-05-07T00:05:34.662Z,3.40
2023-05-07T00:08:03.822Z,3.33
2023-05-07T00:10:31.520Z,2.87
2023-05-07T00:12:59.277Z,2.80
2023-05-07T00:15:27.026Z,2.50
2023-05-07T00:17:54.856Z,2.80
2023-05-07T00:20:22.648Z,2.90
2023-05-07T00:22:50.347Z,3.00
2023-05-07T00:25:20.633Z,3.00
2023-05-07T00:27:48.439Z,2.80
2023-05-07T00:30:16.344Z,3.40
2023-05-07T00:32:46.529Z,3.03
2023-05-07T00:35:14.382Z,2.90
2023-05-07T00:37:42.091Z,3.23
2023-05-07T00:40:10.882Z,3.50
2023-05-07T00:42:40.272Z,3.63
2023-05-07T00:45:08.938Z,4.10
2023-05-07T00:47:36.882Z,3.97
2023-05-07T00:50:04.888Z,4.33
2023-05-07T00:52:32.642Z,3.87
2023-05-07T00:55:01.723Z,3.27
2023-05-07T00:57:29.451Z,3.70
2023-05-07T00:59:58.635Z,4.00
2023-05-07T01:02:26.459Z,4.30
2023-05-07T01:04:54.299Z,3.47
2023-05-07T01:07:22.490Z,3.03
2023-05-07T01:09:50.266Z,3.60
2023-05-07T01:12:18.184Z,3.97
2023-05-07T01:14:46.059Z,3.07
2023-05-07T01:17:15.266Z,3.23
2023-05-07T01:19:43.365Z,3.10
2023-05-07T01:22:12.243Z,3.07
2023-05-07T01:24:41.401Z,4.00
2023-05-07T01:27:09.188Z,3.37
2023-05-07T01:29:37.033Z,3.17
2023-05-07T01:32:05.078Z,3.53
2023-05-07T01:34:34.729Z,3.90
2023-05-07T01:37:02.638Z,3.90
2023-05-07T01:39:31.038Z,4.00
2023-05-07T01:42:01.014Z,3.30
2023-05-07T01:44:29.124Z,3.70
2023-05-07T01:46:57.028Z,4.00
2023-05-07T01:49:24.885Z,4.00
2023-05-07T01:51:53.158Z,4.10
2023-05-07T01:54:21.673Z,3.33
2023-05-07T01:56:50.118Z,3.90
2023-05-07T01:59:19.305Z,3.90
2023-05-07T02:01:47.087Z,4.23
2023-05-07T02:04:14.936Z,3.60
2023-05-07T02:06:42.707Z,3.20
2023-05-07T02:09:11.297Z,3.47
2023-05-07T02:11:39.009Z,3.77
2023-05-07T02:14:06.823Z,3.70
2023-05-07T02:16:35.935Z,3.10
2023-05-07T02:19:03.685Z,3.27
2023-05-07T02:21:31.444Z,3.50
2023-05-07T02:23:59.149Z,4.00
2023-05-07T02:26:26.994Z,3.30
2023-05-07T02:28:54.858Z,3.30
2023-05-07T02:31:22.600Z,3.30
2023-05-07T02:33:51.752Z,3.50
2023-05-07T02:36:19.460Z,2.97
2023-05-07T02:38:47.160Z,3.30
2023-05-07T02:41:14.859Z,3.77
2023-05-07T02:43:42.604Z,3.37
2023-05-07T02:46:10.901Z,3.13
2023-05-07T02:48:38.613Z,3.47
2023-05-07T02:51:07.816Z,2.97
2023-05-07T02:53:35.719Z,2.70
2023-05-07T02:56:03.597Z,3.10
2023-05-07T02:58:31.411Z,3.20
2023-05-07T03:01:00.069Z,2.90
2023-05-07T03:03:27.897Z,3.43
2023-05-07T03:05:55.591Z,3.10
2023-05-07T03:08:24.787Z,3.30
2023-05-07T03:10:52.789Z,3.10
2023-05-07T03:13:20.602Z,2.90
2023-05-07T03:15:49.512Z,3.20
2023-05-07T03:18:17.367Z,2.83
2023-05-07T03:20:45.201Z,3.17
2023-05-07T03:23:12.928Z,3.10
2023-05-07T03:25:42.058Z,3.00
2023-05-07T03:28:09.777Z,3.30
2023-05-07T03:30:37.607Z,3.60
2023-05-07T03:33:05.714Z,3.50
2023-05-07T03:35:33.496Z,3.30
2023-05-07T03:38:01.290Z,3.40
2023-05-07T03:40:29.790Z,3.47
2023-05-07T03:43:00.087Z,3.43
2023-05-07T03:45:27.958Z,4.00
2023-05-07T03:47:55.751Z,3.77
2023-05-07T03:50:23.546Z,4.10
2023-05-07T03:52:51.295Z,3.73
2023-05-07T03:55:19.164Z,4.20
2023-05-07T03:57:46.910Z,3.90
2023-05-07T04:00:16.514Z,3.90
2023-05-07T04:02:44.442Z,4.40
2023-05-07T04:05:12.317Z,4.17
2023-05-07T04:07:40.012Z,3.93
2023-05-07T04:10:08.251Z,4.00
2023-05-07T04:12:36.187Z,3.60
2023-05-07T04:15:03.912Z,3.80
2023-05-07T04:17:33.087Z,3.60
2023-05-07T04:20:00.808Z,3.80
2023-05-07T04:22:28.556Z,3.83
2023-05-07T04:24:57.341Z,4.00
2023-05-07T04:27:25.465Z,3.77
2023-05-07T04:29:56.801Z,3.70
2023-05-07T04:32:26.051Z,3.60
2023-05-07T04:34:55.299Z,3.63
2023-05-07T04:37:23.024Z,3.20
2023-05-07T04:39:50.955Z,3.50
2023-05-07T04:42:19.010Z,3.67
2023-05-07T04:44:47.265Z,3.60
2023-05-07T04:47:14.989Z,3.50
2023-05-07T04:49:42.676Z,3.70
2023-05-07T04:52:11.807Z,3.60
2023-05-07T04:54:45.416Z,3.77
2023-05-07T04:57:13.209Z,3.60
2023-05-07T04:59:40.903Z,3.80
2023-05-07T05:02:08.615Z,3.40
2023-05-07T05:04:36.441Z,3.17
2023-05-07T05:07:05.624Z,3.50
2023-05-07T05:09:34.773Z,3.30
2023-05-07T05:12:02.523Z,3.47
2023-05-07T05:14:30.546Z,3.50
2023-05-07T05:16:58.326Z,3.17
2023-05-07T05:19:26.064Z,3.40
2023-05-07T05:21:53.783Z,3.30
2023-05-07T05:24:21.542Z,3.50
2023-05-07T05:26:50.637Z,3.30
2023-05-07T05:29:18.360Z,3.13
2023-05-07T05:31:46.139Z,3.40
2023-05-07T05:34:13.919Z,3.20
2023-05-07T05:36:41.657Z,3.50
2023-05-07T05:39:09.687Z,3.50
2023-05-07T05:41:37.525Z,3.30
2023-05-07T05:44:06.653Z,3.70
2023-05-07T05:46:36.420Z,3.40
2023-05-07T05:49:04.896Z,3.27
2023-05-07T05:51:32.794Z,3.23
2023-05-07T05:54:00.539Z,3.50
2023-05-07T05:56:28.398Z,3.50
2023-05-07T05:58:56.222Z,2.87
2023-05-07T06:01:25.482Z,2.90
2023-05-07T06:03:53.205Z,2.87
2023-05-07T06:06:21.978Z,2.80
2023-05-07T06:08:49.694Z,2.80
2023-05-07T06:11:17.457Z,2.40
2023-05-07T06:13:45.217Z,2.50
2023-05-07T06:16:12.970Z,2.60
2023-05-07T06:18:42.202Z,2.50
2023-05-07T06:21:09.945Z,2.53
2023-05-07T06:23:37.666Z,3.00
2023-05-07T06:26:05.535Z,3.30
2023-05-07T06:28:36.899Z,3.53
2023-05-07T06:31:14.495Z,4.00
2023-05-07T06:33:43.887Z,4.17
2023-05-07T06:36:17.534Z,4.53
2023-05-07T06:38:45.351Z,5.33
2023-05-07T06:41:13.058Z,5.40
2023-05-07T06:43:40.781Z,5.63
2023-05-07T06:46:08.590Z,6.67
2023-05-07T06:48:36.363Z,6.30
2023-05-07T06:51:06.703Z,6.53
2023-05-07T06:53:35.383Z,6.33
2023-05-07T06:56:03.138Z,6.10
2023-05-07T06:58:32.280Z,5.80
2023-05-07T07:01:00.212Z,5.77
2023-05-07T07:03:28.017Z,4.60
2023-05-07T07:05:56.087Z,4.80
2023-05-07T07:08:25.207Z,5.00
2023-05-07T07:10:52.943Z,4.60
2023-05-07T07:13:20.823Z,4.57
2023-05-07T07:15:48.663Z,4.60
2023-05-07T07:18:16.539Z,4.43
2023-05-07T07:20:45.578Z,4.70
2023-05-07T07:23:14.681Z,4.40
2023-05-07T07:25:43.854Z,4.27
2023-05-07T07:28:11.719Z,4.03
2023-05-07T07:30:39.552Z,4.20
2023-05-07T07:33:07.380Z,3.80
2023-05-07T07:35:35.317Z,3.60
2023-05-07T07:38:03.699Z,3.17
2023-05-07T07:40:31.432Z,2.80
2023-05-07T07:43:02.309Z,2.80
2023-05-07T07:45:30.133Z,3.00
2023-05-07T07:47:57.895Z,2.80
2023-05-07T07:52:59.778Z,3.00
2023-05-07T07:55:28.149Z,3.03
2023-05-07T07:57:55.911Z,3.00
2023-05-07T08:00:25.176Z,2.97
2023-05-07T08:02:53.130Z,3.00
2023-05-07T08:05:21.098Z,3.10
2023-05-07T08:07:52.982Z,3.00
2023-05-07T08:10:22.329Z,3.00
2023-05-07T08:12:50.282Z,2.70
2023-05-07T08:15:18.296Z,2.83
2023-05-07T08:17:47.610Z,2.80
2023-05-07T08:20:16.055Z,2.60
2023-05-07T08:22:43.834Z,2.80
2023-05-07T08:25:11.712Z,2.70
2023-05-07T08:27:39.448Z,2.80
2023-05-07T08:30:07.766Z,3.00
2023-05-07T08:32:35.514Z,3.10
2023-05-07T08:35:04.850Z,3.10
2023-05-07T08:37:32.572Z,3.30
2023-05-07T08:40:00.329Z,3.10
2023-05-07T08:42:29.621Z,3.30
2023-05-07T08:45:00.444Z,3.10
2023-05-07T08:47:31.580Z,2.90
2023-05-07T08:49:59.995Z,3.20
2023-05-07T08:52:29.372Z,3.17
2023-05-07T08:54:57.114Z,2.90
2023-05-07T08:57:25.522Z,2.87
2023-05-07T08:59:53.383Z,3.40
2023-05-07T09:02:21.226Z,3.00
2023-05-07T09:04:49.104Z,3.37
2023-05-07T09:07:18.081Z,3.53
2023-05-07T09:09:48.429Z,3.10
2023-05-07T09:12:16.176Z,3.70
2023-05-07T09:14:43.987Z,3.23
2023-05-07T09:17:11.671Z,3.90
2023-05-07T09:19:39.381Z,3.80
2023-05-07T09:22:08.066Z,3.63
2023-05-07T09:24:38.823Z,3.93
2023-05-07T09:27:09.335Z,3.63
2023-05-07T09:29:37.181Z,4.10
2023-05-07T09:32:05.630Z,3.40
2023-05-07T09:34:33.624Z,3.67
2023-05-07T09:37:01.419Z,3.80
2023-05-07T09:39:40.490Z,3.40
2023-05-07T09:42:09.598Z,3.50
2023-05-07T09:44:37.441Z,3.53
2023-05-07T09:47:06.737Z,3.70
2023-05-07T09:49:36.127Z,3.70
2023-05-07T09:52:04.722Z,3.93
2023-05-07T09:54:33.817Z,4.40
2023-05-07T09:57:03.549Z,4.33
2023-05-07T09:59:33.815Z,4.10
2023-05-07T10:02:04.687Z,4.10
2023-05-07T10:04:33.219Z,4.10
2023-05-07T10:07:01.194Z,4.20
2023-05-07T10:09:28.907Z,3.77
2023-05-07T10:11:57.008Z,4.37
2023-05-07T10:14:25.390Z,4.10
2023-05-07T10:16:55.859Z,4.50
2023-05-07T10:19:24.261Z,4.63
2023-05-07T10:21:56.354Z,4.83
2023-05-07T10:24:27.470Z,4.57
2023-05-07T10:26:56.498Z,4.47
2023-05-07T10:29:32.774Z,4.77
2023-05-07T10:32:07.277Z,5.00
2023-05-07T10:34:37.927Z,4.60
2023-05-07T10:37:05.993Z,4.77
2023-05-07T10:39:33.706Z,5.27
2023-05-07T10:42:09.593Z,5.47
2023-05-07T10:44:38.438Z,5.20
2023-05-07T10:47:10.199Z,5.53
2023-05-07T10:49:38.680Z,5.50
2023-05-07T10:52:16.923Z,5.30
2023-05-07T10:54:44.858Z,4.70
2023-05-07T10:57:31.033Z,4.10
2023-05-07T10:59:59.361Z,4.17
2023-05-07T11:02:51.981Z,4.20
2023-05-07T11:05:24.764Z,4.57
2023-05-07T11:07:56.307Z,4.20
2023-05-07T11:10:24.066Z,4.20
2023-05-07T11:12:52.957Z,3.67
2023-05-07T11:15:40.219Z,3.80
2023-05-07T11:18:08.166Z,3.60
2023-05-07T11:20:56.789Z,3.10
2023-05-07T11:23:43.206Z,3.10
2023-05-07T11:26:12.306Z,1.80
2023-05-07T11:28:40.592Z,1.60
2023-05-07T11:31:08.581Z,1.50
2023-05-07T11:33:36.758Z,1.80
2023-05-07T11:36:15.241Z,1.63
2023-05-07T11:38:42.995Z,2.00
2023-05-07T11:41:11.211Z,1.77
2023-05-07T11:43:40.996Z,1.70
2023-05-07T11:46:09.893Z,1.67
2023-05-07T11:48:37.799Z,1.60
2023-05-07T11:51:06.430Z,1.67
2023-05-07T11:53:39.702Z,1.50
2023-05-07T11:56:08.500Z,1.40
2023-05-07T11:58:36.339Z,1.50
2023-05-07T12:01:04.040Z,1.40
2023-05-07T12:03:35.642Z,1.57
2023-05-07T12:06:13.477Z,1.40
2023-05-07T12:08:43.931Z,1.50
2023-05-07T12:11:19.076Z,1.37
2023-05-07T12:13:46.930Z,1.20
2023-05-07T12:16:14.739Z,1.27
2023-05-07T12:18:42.952Z,1.10
2023-05-07T12:21:11.880Z,1.20
2023-05-07T12:23:40.600Z,1.33
2023-05-07T12:26:10.988Z,1.10
2023-05-07T12:28:39.724Z,1.20
2023-05-07T12:31:07.772Z,1.10
2023-05-07T12:33:36.471Z,1.10
2023-05-07T12:36:08.737Z,1.00
2023-05-07T12:38:37.403Z,0.90
2023-05-07T12:41:05.270Z,1.00
2023-05-07T12:43:34.522Z,0.77
2023-05-07T12:46:03.693Z,0.87
2023-05-07T12:48:31.554Z,0.80
2023-05-07T12:50:59.887Z,0.80
2023-05-07T12:53:28.352Z,0.90
2023-05-07T12:55:56.632Z,0.80
2023-05-07T12:58:26.640Z,0.90
2023-05-07T13:01:00.371Z,0.90
2023-05-07T13:03:29.196Z,0.97
2023-05-07T13:05:58.918Z,0.90
2023-05-07T13:08:27.830Z,0.90
2023-05-07T13:10:55.612Z,0.80
2023-05-07T13:13:23.414Z,0.90
2023-05-07T13:15:51.287Z,0.87
2023-05-07T13:18:20.628Z,1.10
2023-05-07T13:20:48.431Z,1.00
2023-05-07T13:23:16.143Z,0.90
2023-05-07T13:25:43.849Z,1.10
2023-05-07T13:28:11.868Z,0.90
2023-05-07T13:30:39.644Z,0.90
2023-05-07T13:33:07.405Z,1.10
2023-05-07T13:35:36.589Z,0.90
2023-05-07T13:38:04.333Z,0.90
2023-05-07T13:40:32.015Z,1.00
2023-05-07T13:43:01.853Z,0.90
2023-05-07T13:45:30.590Z,0.97
2023-05-07T13:47:58.624Z,0.93
2023-05-07T13:50:27.876Z,0.90
2023-05-07T13:52:57.015Z,1.03
2023-05-07T13:55:26.055Z,0.90
2023-05-07T13:57:57.628Z,1.00
2023-05-07T14:00:25.562Z,0.90
2023-05-07T14:02:53.397Z,1.00
2023-05-07T14:05:21.458Z,1.00
2023-05-07T14:07:50.246Z,1.00
2023-05-07T14:10:19.484Z,0.93
2023-05-07T14:12:47.665Z,1.00
2023-05-07T14:15:15.722Z,0.97
2023-05-07T14:17:43.632Z,1.07
2023-05-07T14:20:12.245Z,1.03
2023-05-07T14:22:40.419Z,1.00
2023-05-07T14:25:08.892Z,1.00
2023-05-07T14:27:38.047Z,1.10
2023-05-07T14:30:06.016Z,1.00
2023-05-07T14:32:34.376Z,1.00
2023-05-07T14:35:02.126Z,1.10
2023-05-07T14:37:29.875Z,1.00
2023-05-07T14:39:57.571Z,1.10
2023-05-07T14:42:25.319Z,1.00
2023-05-07T14:44:54.736Z,1.00
2023-05-07T14:47:22.429Z,1.03
2023-05-07T14:49:50.159Z,1.00
2023-05-07T14:52:17.904Z,0.93
2023-05-07T14:54:45.628Z,0.90
2023-05-07T14:57:15.835Z,1.00
2023-05-07T14:59:43.849Z,1.00
2023-05-07T15:02:13.980Z,0.90
2023-05-07T15:04:46.688Z,1.00
2023-05-07T15:07:16.014Z,0.97
2023-05-07T15:09:43.990Z,0.93
2023-05-07T15:12:12.135Z,1.03
2023-05-07T15:14:39.970Z,0.90
2023-05-07T15:17:08.415Z,0.90
2023-05-07T15:19:37.566Z,0.93
2023-05-07T15:22:06.186Z,0.90
2023-05-07T15:24:33.915Z,0.90
2023-05-07T15:27:01.950Z,0.97
2023-05-07T15:29:29.643Z,1.00
2023-05-07T15:31:57.388Z,0.80
2023-05-07T15:34:25.203Z,1.00
2023-05-07T15:36:54.298Z,0.90
2023-05-07T15:39:24.267Z,1.00
2023-05-07T15:41:52.725Z,0.93
2023-05-07T15:44:20.481Z,0.90
2023-05-07T15:46:48.267Z,1.00
2023-05-07T15:49:15.976Z,1.10
2023-05-07T15:51:43.781Z,1.10
2023-05-07T15:54:13.044Z,0.90
2023-05-07T15:56:40.759Z,0.90
2023-05-07T15:59:10.048Z,0.97
2023-05-07T16:01:37.853Z,0.90
2023-05-07T16:04:05.754Z,0.90
2023-05-07T16:06:33.470Z,0.80
2023-05-07T16:09:01.175Z,0.90
2023-05-07T16:11:31.441Z,0.90
2023-05-07T16:14:00.860Z,0.93
2023-05-07T16:16:30.105Z,0.90
2023-05-07T16:18:58.035Z,0.80
2023-05-07T16:21:25.763Z,0.90
2023-05-07T16:23:53.514Z,0.73
2023-05-07T16:26:21.263Z,0.97
2023-05-07T16:28:51.799Z,0.90
2023-05-07T16:31:19.593Z,0.80
2023-05-07T16:33:47.372Z,0.80
2023-05-07T16:36:15.071Z,0.70
2023-05-07T16:38:42.739Z,0.90
2023-05-07T16:41:10.961Z,0.87
2023-05-07T16:43:38.756Z,0.90
2023-05-07T16:46:07.877Z,1.00
2023-05-07T16:48:35.564Z,0.80
2023-05-07T16:51:03.890Z,0.90
2023-05-07T16:53:31.613Z,0.83
2023-05-07T16:55:59.457Z,0.83
2023-05-07T16:58:28.146Z,0.70
2023-05-07T17:00:55.898Z,0.80
2023-05-07T17:03:25.100Z,0.90
2023-05-07T17:05:53.237Z,0.80
2023-05-07T17:08:20.989Z,0.80
2023-05-07T17:10:48.736Z,0.80
2023-05-07T17:13:16.511Z,0.80
2023-05-07T17:15:46.529Z,0.80
2023-05-07T17:18:14.465Z,0.80
2023-05-07T17:20:43.634Z,0.80
2023-05-07T17:23:11.339Z,0.80
2023-05-07T17:25:39.179Z,0.70
2023-05-07T17:28:06.926Z,0.80
2023-05-07T17:30:34.608Z,0.80
2023-05-07T17:33:16.786Z,0.80
2023-05-07T17:35:49.699Z,0.83
2023-05-07T17:38:17.465Z,0.90
2023-05-07T17:40:45.148Z,0.80
2023-05-07T17:43:12.913Z,0.90
2023-05-07T17:45:40.672Z,0.77
2023-05-07T17:48:08.493Z,0.80
2023-05-07T17:50:36.209Z,0.90
2023-05-07T17:53:06.068Z,0.80
2023-05-07T17:55:33.953Z,0.80
2023-05-07T17:58:02.639Z,0.90
2023-05-07T18:00:30.469Z,0.90
2023-05-07T18:03:00.219Z,0.80
2023-05-07T18:05:28.446Z,0.70
2023-05-07T18:07:56.378Z,0.80
2023-05-07T18:10:25.525Z,0.80
2023-05-07T18:12:53.263Z,0.80
2023-05-07T18:15:21.004Z,0.80
2023-05-07T18:17:48.762Z,0.80
2023-05-07T18:20:16.579Z,0.70
2023-05-07T18:22:44.286Z,0.80
2023-05-07T18:25:12.034Z,0.80
2023-05-07T18:27:41.309Z,0.77
2023-05-07T18:30:09.709Z,0.80
2023-05-07T18:32:37.601Z,0.90
2023-05-07T18:35:05.789Z,0.80
2023-05-07T18:37:33.546Z,0.90
2023-05-07T18:40:03.788Z,0.70
2023-05-07T18:42:33.998Z,0.80
2023-05-07T18:45:04.782Z,0.80
2023-05-07T18:47:32.535Z,0.90
2023-05-07T18:50:00.895Z,0.80
2023-05-07T18:52:29.283Z,0.70
2023-05-07T18:54:57.036Z,0.80
2023-05-07T18:57:24.924Z,0.90
2023-05-07T18:59:53.831Z,0.70
2023-05-07T19:02:23.167Z,0.80
2023-05-07T19:04:51.083Z,0.80
2023-05-07T19:07:18.995Z,0.90
2023-05-07T19:10:01.198Z,0.90
2023-05-07T19:12:32.599Z,0.90
2023-05-07T19:15:00.413Z,0.80
2023-05-07T19:17:29.778Z,0.80
2023-05-07T19:19:57.651Z,0.80
2023-05-07T19:22:25.659Z,0.90
2023-05-07T19:24:53.472Z,0.70
2023-05-07T19:27:21.260Z,0.80
2023-05-07T19:29:49.226Z,0.80
2023-05-07T19:32:17.079Z,0.80
2023-05-07T19:34:47.318Z,0.70
2023-05-07T19:37:15.058Z,0.80
2023-05-07T19:39:42.783Z,0.90
2023-05-07T19:42:10.686Z,1.00
2023-05-07T19:44:38.457Z,1.00
2023-05-07T19:47:07.090Z,1.00
2023-05-07T19:49:34.851Z,0.90
2023-05-07T19:52:03.981Z,0.90
2023-05-07T19:54:31.901Z,0.90
2023-05-07T19:56:59.651Z,0.80
2023-05-07T19:59:28.366Z,0.90
2023-05-07T20:01:56.177Z,1.00
2023-05-07T20:04:29.103Z,0.93
2023-05-07T20:06:56.883Z,0.90
2023-05-07T20:09:25.976Z,0.90
2023-05-07T20:11:53.696Z,1.00
2023-05-07T20:14:21.488Z,0.80
2023-05-07T20:16:49.326Z,1.00
2023-05-07T20:19:17.887Z,0.90
2023-05-07T20:21:45.718Z,0.90
2023-05-07T20:24:13.468Z,0.90
2023-05-07T20:26:42.594Z,1.00
2023-05-07T20:29:10.300Z,1.03
2023-05-07T20:31:38.484Z,0.80
2023-05-07T20:34:06.264Z,1.00
2023-05-07T20:36:33.990Z,1.00
2023-05-07T20:39:01.747Z,1.10
2023-05-07T20:41:29.483Z,0.97
2023-05-07T20:43:58.613Z,1.00
2023-05-07T20:46:27.515Z,1.00
2023-05-07T20:48:55.336Z,1.20
2023-05-07T20:51:23.078Z,1.30
2023-05-07T20:53:50.802Z,1.20
2023-05-07T20:56:18.593Z,1.30
2023-05-07T20:58:46.297Z,1.37
2023-05-07T21:01:15.682Z,1.40
2023-05-07T21:03:43.606Z,1.30
2023-05-07T21:06:11.517Z,1.60
2023-05-07T21:08:39.292Z,1.50
2023-05-07T21:11:08.020Z,1.70
2023-05-07T21:13:35.825Z,1.70
2023-05-07T21:16:03.724Z,1.77
2023-05-07T21:18:33.080Z,1.90
2023-05-07T21:21:00.945Z,1.70
2023-05-07T21:23:28.744Z,1.57
2023-05-07T21:25:56.640Z,1.77
2023-05-07T21:28:24.366Z,1.83
2023-05-07T21:30:53.327Z,1.80
2023-05-07T21:33:21.225Z,2.00
2023-05-07T21:35:50.382Z,2.30
2023-05-07T21:38:18.777Z,2.73
2023-05-07T21:40:46.468Z,2.63
2023-05-07T21:43:14.188Z,2.97
2023-05-07T21:45:41.996Z,3.60
2023-05-07T21:48:09.766Z,3.87
2023-05-07T21:50:37.534Z,3.83
2023-05-07T21:53:06.677Z,4.03
2023-05-07T21:55:34.435Z,3.87
2023-05-07T21:58:05.967Z,3.90
2023-05-07T22:00:34.175Z,3.70
2023-05-07T22:03:02.015Z,3.27
2023-05-07T22:05:29.843Z,3.13
2023-05-07T22:07:57.560Z,3.30
2023-05-07T22:10:26.664Z,3.03
2023-05-07T22:12:54.485Z,2.90
2023-05-07T22:15:22.223Z,2.87
2023-05-07T22:17:50.041Z,3.30
2023-05-07T22:20:17.890Z,2.60
2023-05-07T22:22:51.130Z,2.97
2023-05-07T22:25:22.674Z,3.20
2023-05-07T22:27:52.177Z,3.17
2023-05-07T22:30:22.390Z,3.20
2023-05-07T22:32:50.128Z,3.30
2023-05-07T22:35:17.939Z,3.10
2023-05-07T22:37:45.700Z,2.87
2023-05-07T22:40:13.872Z,2.83
2023-05-07T22:42:41.768Z,3.40
2023-05-07T22:45:11.639Z,3.20
2023-05-07T22:47:39.455Z,3.70
2023-05-07T22:50:07.781Z,3.40
2023-05-07T22:52:35.532Z,3.63
2023-05-07T22:55:03.311Z,3.10
2023-05-07T22:57:31.114Z,3.10
2023-05-07T22:59:58.900Z,3.20
2023-05-07T23:02:29.099Z,2.77
2023-05-07T23:04:59.400Z,2.70
2023-05-07T23:07:33.098Z,2.80
2023-05-07T23:10:00.783Z,2.60
2023-05-07T23:12:28.478Z,2.53
2023-05-07T23:14:56.235Z,2.90
2023-05-07T23:17:24.063Z,2.57
2023-05-07T23:19:53.504Z,2.80
2023-05-07T23:22:21.366Z,2.60
2023-05-07T23:24:49.059Z,2.60
2023-05-07T23:27:16.770Z,2.90
2023-05-07T23:29:46.624Z,3.10
2023-05-07T23:32:14.331Z,3.00
2023-05-07T23:34:42.044Z,2.80
2023-05-07T23:37:11.178Z,2.70
2023-05-07T23:39:38.955Z,2.77
2023-05-07T23:42:06.965Z,3.00
2023-05-07T23:44:34.697Z,3.00
2023-05-07T23:47:02.402Z,3.17
2023-05-07T23:49:30.107Z,3.20
2023-05-07T23:51:57.844Z,3.10
2023-05-07T23:54:26.957Z,2.87
2023-05-07T23:56:54.694Z,3.17
2023-05-07T23:59:22.631Z,3.40
